PWSweather.com
Personal Weather Stations
Station Observations
STPETERS
BroadstairsGB

BroadstairsGB

Lat: 51.37, Lon: 1.423

Elevation: 141

Station Type: WH1081

Latest ConditionsUpdated 10:00:03 AM GMT Tuesday, May 31, 2016
Currently Today's Max Today's Min Today's Average
Temperature 54.5°F12.5°C 55.2°F12.9°C 53.1°F11.7°C 53.9°F12.2°C
Dew Point 54.5°F12.5°C 54.5°F12.5°C 49.5°F9.7°C 51.0°F10.6°C
Winds 17.7 mph N28.5 kmh N 27.1 mph NNW43.6 kmh NNW - 21.1 mph 34.0 kmh
Wind Gusts 24.4 mph39.3 kmh 30.4 mph48.9 kmh - -
Humidity 100% 100% 84% 90%
Pressure 29.89 in1012.2 mb 29.89 in1012.2 mb 29.83 in1010.2 mb -
Precipitation - 0.17 in4.3 mm - -
Hour Temp Dew Point Humidity Winds Wind Gusts Pressure Precip Precip Rate Daily Precip Total
10:00 AM 54.5°F12.5°C 54.5°F12.5°C 100% 17.7 mph N28.5 kmh N 24.4 mph39.3 kmh 29.89 in1012.2 mb 0.00 in0.0 mm 0.00 in0.0 mm 0.17 in4.3 mm
09:45 AM 54.3°F12.4°C 54.1°F12.3°C 99% 20.3 mph NNE32.7 kmh NNE 25.1 mph40.4 kmh 29.89 in1012.2 mb 0.00 in0.0 mm 0.00 in0.0 mm 0.17 in4.3 mm
09:30 AM 54.3°F12.4°C 53.5°F11.9°C 97% 20.6 mph N33.2 kmh N 27.3 mph43.9 kmh 29.89 in1012.2 mb 0.00 in0.0 mm 0.00 in0.0 mm 0.17 in4.3 mm
09:15 AM 54.1°F12.3°C 52.7°F11.5°C 95% 20.1 mph N32.3 kmh N 25.1 mph40.4 kmh 29.88 in1011.9 mb 0.00 in0.0 mm 0.00 in0.0 mm 0.17 in4.3 mm
09:00 AM 54.1°F12.3°C 52.2°F11.2°C 93% 20.2 mph N32.5 kmh N 28.9 mph46.5 kmh 29.88 in1011.9 mb 0.00 in0.0 mm 0.00 in0.0 mm 0.17 in4.3 mm
08:45 AM 54.1°F12.3°C 51.9°F11.1°C 92% 18.1 mph N29.1 kmh N 23.5 mph37.8 kmh 29.87 in1011.5 mb 0.00 in0.0 mm 0.00 in0.0 mm 0.17 in4.3 mm
08:30 AM 54.0°F12.2°C 51.7°F10.9°C 92% 20.5 mph N33.0 kmh N 28.2 mph45.4 kmh 29.87 in1011.5 mb 0.00 in0.0 mm 0.00 in0.0 mm 0.17 in4.3 mm
08:15 AM 54.0°F12.2°C 51.4°F10.8°C 91% 20.1 mph N32.3 kmh N 25.9 mph41.7 kmh 29.86 in1011.2 mb 0.00 in0.0 mm 0.00 in0.0 mm 0.17 in4.3 mm
08:00 AM 54.0°F12.2°C 51.4°F10.8°C 91% 18.2 mph NNW29.3 kmh NNW 26.6 mph42.8 kmh 29.87 in1011.5 mb 0.00 in0.0 mm 0.00 in0.0 mm 0.17 in4.3 mm
07:45 AM 54.0°F12.2°C 51.1°F10.6°C 90% 20.4 mph N32.8 kmh N 24.4 mph39.3 kmh 29.86 in1011.2 mb 0.00 in0.0 mm 0.00 in0.0 mm 0.17 in4.3 mm
07:30 AM 53.8°F12.1°C 51.2°F10.7°C 91% 20.1 mph N32.3 kmh N 27.3 mph43.9 kmh 29.86 in1011.2 mb 0.00 in0.0 mm 0.00 in0.0 mm 0.17 in4.3 mm
07:15 AM 53.6°F12.0°C 51.3°F10.7°C 92% 21.7 mph N34.9 kmh N 28.2 mph45.4 kmh 29.85 in1010.8 mb 0.00 in0.0 mm 0.00 in0.0 mm 0.17 in4.3 mm
07:00 AM 53.4°F11.9°C 51.2°F10.7°C 92% 23.9 mph NNW38.5 kmh NNW 30.4 mph48.9 kmh 29.85 in1010.8 mb 0.01 in0.3 mm 0.00 in0.0 mm 0.17 in4.3 mm
06:45 AM 53.2°F11.8°C 51.0°F10.6°C 92% 22.6 mph N36.4 kmh N 22.8 mph36.7 kmh 29.85 in1010.8 mb 0.01 in0.3 mm 0.00 in0.0 mm 0.17 in4.3 mm
06:41 AM 53.8°F12.1°C 50.6°F10.3°C 89% 20.5 mph NNE33.0 kmh NNE 22.8 mph36.7 kmh 29.84 in1010.5 mb 0.06 in1.5 mm 3.60 in91.4 mm 0.12 in3.0 mm
06:40 AM 54.5°F12.5°C 50.4°F10.2°C 86% 18.9 mph N30.4 kmh N 22.1 mph35.6 kmh 29.83 in1010.2 mb 0.00 in0.0 mm 0.00 in0.0 mm 0.06 in1.5 mm
06:36 AM 53.2°F11.8°C 51.0°F10.6°C 92% 24.8 mph NNW39.9 kmh NNW 28.2 mph45.4 kmh 29.85 in1010.8 mb 0.01 in0.3 mm 0.00 in0.0 mm 0.17 in4.3 mm
06:31 AM 53.2°F11.8°C 51.0°F10.6°C 92% 24.1 mph NNW38.8 kmh NNW 28.2 mph45.4 kmh 29.84 in1010.5 mb 0.01 in0.3 mm 0.00 in0.0 mm 0.17 in4.3 mm
06:26 AM 53.2°F11.8°C 51.0°F10.6°C 92% 21.3 mph N34.3 kmh N 27.3 mph43.9 kmh 29.84 in1010.5 mb 0.01 in0.3 mm 0.02 in0.5 mm 0.17 in4.3 mm
02:00 AM 54.7°F12.6°C 52.1°F11.2°C 91% 21.5 mph N34.6 kmh N 28.2 mph45.4 kmh 29.83 in1010.2 mb 0.04 in1.0 mm 0.00 in0.0 mm 0.05 in1.3 mm
01:45 AM 54.5°F12.5°C 51.9°F11.1°C 91% 21.5 mph N34.6 kmh N 27.3 mph43.9 kmh 29.84 in1010.5 mb 0.05 in1.3 mm 0.04 in1.0 mm 0.05 in1.3 mm
01:30 AM 54.5°F12.5°C 51.6°F10.9°C 90% 20.3 mph N32.7 kmh N 22.8 mph36.7 kmh 29.84 in1010.5 mb 0.04 in1.0 mm 0.08 in2.0 mm 0.04 in1.0 mm
01:15 AM 54.9°F12.7°C 51.7°F10.9°C 89% 20.2 mph N32.5 kmh N 24.4 mph39.3 kmh 29.83 in1010.2 mb 0.02 in0.5 mm 0.04 in1.0 mm 0.02 in0.5 mm
01:00 AM 54.9°F12.7°C 51.4°F10.8°C 88% 19.9 mph N32.0 kmh N 25.9 mph41.7 kmh 29.83 in1010.2 mb 0.01 in0.3 mm 0.01 in0.3 mm 0.01 in0.3 mm
12:45 AM 55.0°F12.8°C 51.6°F10.9°C 88% 16.4 mph NW26.4 kmh NW 21.3 mph34.3 kmh 29.84 in1010.5 mb 0.00 in0.0 mm 0.00 in0.0 mm 0.00 in0.0 mm
12:30 AM 55.0°F12.8°C 51.2°F10.7°C 87% 16.4 mph NNW26.4 kmh NNW 24.4 mph39.3 kmh 29.84 in1010.5 mb 0.00 in0.0 mm 0.00 in0.0 mm 0.00 in0.0 mm
12:15 AM 55.2°F12.9°C 51.1°F10.6°C 86% 19.3 mph N31.1 kmh N 28.9 mph46.5 kmh 29.84 in1010.5 mb 0.00 in0.0 mm 0.00 in0.0 mm 0.00 in0.0 mm
12:00 AM 55.0°F12.8°C 50.3°F10.2°C 84% 19.3 mph N31.1 kmh N 24.4 mph39.3 kmh 29.86 in1011.2 mb 0.00 in0.0 mm 0.00 in0.0 mm 0.00 in0.0 mm